sensor_id;sensor_type;location;lat;lon;timestamp;P1;durP1;ratioP1;P2;durP2;ratioP2
13801;SDS011;6972;51.518;6.918;2023-02-15T00:02:24;23.13;;;14.97;;
13801;SDS011;6972;51.518;6.918;2023-02-15T00:04:53;26.37;;;15.97;;
13801;SDS011;6972;51.518;6.918;2023-02-15T00:07:20;28.33;;;16.23;;
13801;SDS011;6972;51.518;6.918;2023-02-15T00:09:46;26.50;;;15.63;;
13801;SDS011;6972;51.518;6.918;2023-02-15T00:12:13;31.30;;;15.90;;
13801;SDS011;6972;51.518;6.918;2023-02-15T00:14:39;25.37;;;15.77;;
13801;SDS011;6972;51.518;6.918;2023-02-15T00:17:05;24.60;;;15.30;;
13801;SDS011;6972;51.518;6.918;2023-02-15T00:19:31;24.80;;;15.63;;
13801;SDS011;6972;51.518;6.918;2023-02-15T00:21:57;23.93;;;14.70;;
13801;SDS011;6972;51.518;6.918;2023-02-15T00:24:23;26.37;;;15.37;;
13801;SDS011;6972;51.518;6.918;2023-02-15T00:26:48;27.27;;;15.87;;
13801;SDS011;6972;51.518;6.918;2023-02-15T00:29:14;26.70;;;15.90;;
13801;SDS011;6972;51.518;6.918;2023-02-15T00:31:42;25.47;;;15.80;;
13801;SDS011;6972;51.518;6.918;2023-02-15T00:34:13;26.20;;;15.67;;
13801;SDS011;6972;51.518;6.918;2023-02-15T00:36:44;26.33;;;15.80;;
13801;SDS011;6972;51.518;6.918;2023-02-15T00:39:10;27.27;;;16.40;;
13801;SDS011;6972;51.518;6.918;2023-02-15T00:41:37;26.57;;;16.20;;
13801;SDS011;6972;51.518;6.918;2023-02-15T00:44:03;26.90;;;15.90;;
13801;SDS011;6972;51.518;6.918;2023-02-15T00:46:29;29.53;;;16.63;;
13801;SDS011;6972;51.518;6.918;2023-02-15T00:48:55;25.57;;;15.40;;
13801;SDS011;6972;51.518;6.918;2023-02-15T00:51:21;27.40;;;15.57;;
13801;SDS011;6972;51.518;6.918;2023-02-15T00:53:47;27.50;;;16.73;;
13801;SDS011;6972;51.518;6.918;2023-02-15T00:56:13;23.13;;;15.33;;
13801;SDS011;6972;51.518;6.918;2023-02-15T00:58:39;26.83;;;15.67;;
13801;SDS011;6972;51.518;6.918;2023-02-15T01:01:06;26.17;;;16.07;;
13801;SDS011;6972;51.518;6.918;2023-02-15T01:03:33;26.27;;;16.13;;
13801;SDS011;6972;51.518;6.918;2023-02-15T01:05:59;26.07;;;15.67;;
13801;SDS011;6972;51.518;6.918;2023-02-15T01:08:25;28.33;;;16.00;;
13801;SDS011;6972;51.518;6.918;2023-02-15T01:10:51;30.33;;;17.00;;
13801;SDS011;6972;51.518;6.918;2023-02-15T01:13:18;31.23;;;17.43;;
13801;SDS011;6972;51.518;6.918;2023-02-15T01:15:44;27.27;;;16.30;;
13801;SDS011;6972;51.518;6.918;2023-02-15T01:18:10;24.53;;;15.30;;
13801;SDS011;6972;51.518;6.918;2023-02-15T01:20:38;28.07;;;16.50;;
13801;SDS011;6972;51.518;6.918;2023-02-15T01:23:06;27.33;;;16.50;;
13801;SDS011;6972;51.518;6.918;2023-02-15T01:25:34;26.47;;;16.07;;
13801;SDS011;6972;51.518;6.918;2023-02-15T01:28:00;24.13;;;15.30;;
13801;SDS011;6972;51.518;6.918;2023-02-15T01:30:26;27.40;;;16.20;;
13801;SDS011;6972;51.518;6.918;2023-02-15T01:32:52;24.77;;;15.73;;
13801;SDS011;6972;51.518;6.918;2023-02-15T01:35:18;27.97;;;16.47;;
13801;SDS011;6972;51.518;6.918;2023-02-15T01:37:44;28.10;;;16.30;;
13801;SDS011;6972;51.518;6.918;2023-02-15T01:40:14;30.87;;;17.17;;
13801;SDS011;6972;51.518;6.918;2023-02-15T01:42:41;26.43;;;16.90;;
13801;SDS011;6972;51.518;6.918;2023-02-15T01:45:40;34.20;;;17.63;;
13801;SDS011;6972;51.518;6.918;2023-02-15T01:48:03;27.47;;;17.73;;
13801;SDS011;6972;51.518;6.918;2023-02-15T01:55:42;33.33;;;18.40;;
13801;SDS011;6972;51.518;6.918;2023-02-15T01:58:30;29.13;;;17.40;;
13801;SDS011;6972;51.518;6.918;2023-02-15T02:00:58;31.80;;;17.97;;
13801;SDS011;6972;51.518;6.918;2023-02-15T02:06:23;29.73;;;17.23;;
13801;SDS011;6972;51.518;6.918;2023-02-15T02:08:49;26.07;;;16.70;;
13801;SDS011;6972;51.518;6.918;2023-02-15T02:11:15;33.67;;;18.47;;
13801;SDS011;6972;51.518;6.918;2023-02-15T02:13:42;30.23;;;17.27;;
13801;SDS011;6972;51.518;6.918;2023-02-15T02:16:11;26.97;;;17.00;;
13801;SDS011;6972;51.518;6.918;2023-02-15T02:27:09;31.93;;;19.40;;
13801;SDS011;6972;51.518;6.918;2023-02-15T02:38:46;29.30;;;16.87;;
13801;SDS011;6972;51.518;6.918;2023-02-15T02:41:22;28.63;;;17.60;;
13801;SDS011;6972;51.518;6.918;2023-02-15T02:46:40;28.57;;;16.70;;
13801;SDS011;6972;51.518;6.918;2023-02-15T02:49:09;28.10;;;17.60;;
13801;SDS011;6972;51.518;6.918;2023-02-15T02:51:35;29.93;;;17.77;;
13801;SDS011;6972;51.518;6.918;2023-02-15T02:54:02;29.60;;;16.93;;
13801;SDS011;6972;51.518;6.918;2023-02-15T03:01:33;31.73;;;18.33;;
13801;SDS011;6972;51.518;6.918;2023-02-15T03:04:17;31.63;;;18.30;;
13801;SDS011;6972;51.518;6.918;2023-02-15T03:06:55;29.03;;;17.87;;
13801;SDS011;6972;51.518;6.918;2023-02-15T03:09:31;28.60;;;17.67;;
13801;SDS011;6972;51.518;6.918;2023-02-15T03:12:12;32.37;;;18.43;;
13801;SDS011;6972;51.518;6.918;2023-02-15T03:14:39;32.47;;;19.13;;
13801;SDS011;6972;51.518;6.918;2023-02-15T03:17:06;26.47;;;16.77;;
13801;SDS011;6972;51.518;6.918;2023-02-15T03:19:34;28.73;;;17.80;;
13801;SDS011;6972;51.518;6.918;2023-02-15T03:22:06;31.37;;;18.30;;
13801;SDS011;6972;51.518;6.918;2023-02-15T03:24:49;28.80;;;17.63;;
13801;SDS011;6972;51.518;6.918;2023-02-15T03:27:23;30.07;;;18.27;;
13801;SDS011;6972;51.518;6.918;2023-02-15T03:29:53;32.87;;;18.00;;
13801;SDS011;6972;51.518;6.918;2023-02-15T03:32:21;28.87;;;17.03;;
13801;SDS011;6972;51.518;6.918;2023-02-15T03:34:49;29.83;;;18.17;;
13801;SDS011;6972;51.518;6.918;2023-02-15T03:37:20;30.53;;;17.83;;
13801;SDS011;6972;51.518;6.918;2023-02-15T03:40:09;30.83;;;18.40;;
13801;SDS011;6972;51.518;6.918;2023-02-15T03:46:06;30.63;;;17.50;;
13801;SDS011;6972;51.518;6.918;2023-02-15T03:48:38;33.93;;;18.23;;
13801;SDS011;6972;51.518;6.918;2023-02-15T03:51:09;30.70;;;17.63;;
13801;SDS011;6972;51.518;6.918;2023-02-15T03:53:57;33.20;;;18.87;;
13801;SDS011;6972;51.518;6.918;2023-02-15T03:57:06;32.23;;;18.80;;
13801;SDS011;6972;51.518;6.918;2023-02-15T03:59:53;31.00;;;18.27;;
13801;SDS011;6972;51.518;6.918;2023-02-15T04:02:38;30.80;;;18.23;;
13801;SDS011;6972;51.518;6.918;2023-02-15T04:05:17;30.47;;;18.13;;
13801;SDS011;6972;51.518;6.918;2023-02-15T04:07:43;30.30;;;19.00;;
13801;SDS011;6972;51.518;6.918;2023-02-15T04:10:09;33.07;;;19.47;;
13801;SDS011;6972;51.518;6.918;2023-02-15T04:12:53;31.03;;;18.03;;
13801;SDS011;6972;51.518;6.918;2023-02-15T04:15:19;29.60;;;17.83;;
13801;SDS011;6972;51.518;6.918;2023-02-15T04:18:03;31.40;;;18.67;;
13801;SDS011;6972;51.518;6.918;2023-02-15T04:20:29;38.77;;;19.10;;
13801;SDS011;6972;51.518;6.918;2023-02-15T04:23:14;32.83;;;19.83;;
13801;SDS011;6972;51.518;6.918;2023-02-15T04:25:58;30.93;;;18.33;;
13801;SDS011;6972;51.518;6.918;2023-02-15T04:28:24;30.43;;;18.57;;
13801;SDS011;6972;51.518;6.918;2023-02-15T04:30:50;30.00;;;18.93;;
13801;SDS011;6972;51.518;6.918;2023-02-15T04:33:19;30.57;;;19.27;;
13801;SDS011;6972;51.518;6.918;2023-02-15T04:35:45;28.60;;;18.30;;
13801;SDS011;6972;51.518;6.918;2023-02-15T04:38:11;37.77;;;21.03;;
13801;SDS011;6972;51.518;6.918;2023-02-15T04:40:37;29.73;;;18.37;;
13801;SDS011;6972;51.518;6.918;2023-02-15T04:43:03;30.90;;;19.17;;
13801;SDS011;6972;51.518;6.918;2023-02-15T04:45:29;32.53;;;18.60;;
13801;SDS011;6972;51.518;6.918;2023-02-15T04:47:55;30.47;;;18.93;;
13801;SDS011;6972;51.518;6.918;2023-02-15T04:50:21;35.70;;;18.90;;
13801;SDS011;6972;51.518;6.918;2023-02-15T04:52:47;34.90;;;18.90;;
13801;SDS011;6972;51.518;6.918;2023-02-15T04:55:13;34.77;;;19.13;;
13801;SDS011;6972;51.518;6.918;2023-02-15T04:57:39;31.83;;;19.63;;
13801;SDS011;6972;51.518;6.918;2023-02-15T05:00:05;32.57;;;20.03;;
13801;SDS011;6972;51.518;6.918;2023-02-15T05:02:31;35.93;;;20.03;;
13801;SDS011;6972;51.518;6.918;2023-02-15T05:04:57;30.33;;;18.97;;
13801;SDS011;6972;51.518;6.918;2023-02-15T05:07:23;34.33;;;18.97;;
13801;SDS011;6972;51.518;6.918;2023-02-15T05:09:49;31.27;;;18.50;;
13801;SDS011;6972;51.518;6.918;2023-02-15T05:12:18;32.37;;;19.23;;
13801;SDS011;6972;51.518;6.918;2023-02-15T05:14:44;33.07;;;19.83;;
13801;SDS011;6972;51.518;6.918;2023-02-15T05:17:10;32.90;;;20.13;;
13801;SDS011;6972;51.518;6.918;2023-02-15T05:19:36;35.50;;;18.87;;
13801;SDS011;6972;51.518;6.918;2023-02-15T05:22:02;33.87;;;20.67;;
13801;SDS011;6972;51.518;6.918;2023-02-15T05:24:28;34.27;;;20.07;;
13801;SDS011;6972;51.518;6.918;2023-02-15T05:27:12;35.17;;;19.93;;
13801;SDS011;6972;51.518;6.918;2023-02-15T05:29:57;32.50;;;18.40;;
13801;SDS011;6972;51.518;6.918;2023-02-15T05:32:23;30.07;;;17.97;;
13801;SDS011;6972;51.518;6.918;2023-02-15T05:34:49;31.13;;;17.60;;
13801;SDS011;6972;51.518;6.918;2023-02-15T05:37:15;39.27;;;19.97;;
13801;SDS011;6972;51.518;6.918;2023-02-15T05:39:40;32.23;;;19.50;;
13801;SDS011;6972;51.518;6.918;2023-02-15T05:42:06;33.43;;;20.23;;
13801;SDS011;6972;51.518;6.918;2023-02-15T05:44:32;32.20;;;19.27;;
13801;SDS011;6972;51.518;6.918;2023-02-15T05:46:58;35.20;;;20.07;;
13801;SDS011;6972;51.518;6.918;2023-02-15T05:49:24;35.13;;;19.70;;
13801;SDS011;6972;51.518;6.918;2023-02-15T05:51:49;36.10;;;20.20;;
13801;SDS011;6972;51.518;6.918;2023-02-15T05:54:15;37.90;;;19.37;;
13801;SDS011;6972;51.518;6.918;2023-02-15T05:56:41;31.70;;;18.50;;
13801;SDS011;6972;51.518;6.918;2023-02-15T05:59:07;33.83;;;19.83;;
13801;SDS011;6972;51.518;6.918;2023-02-15T06:01:34;37.17;;;20.17;;
13801;SDS011;6972;51.518;6.918;2023-02-15T06:04:00;33.83;;;19.10;;
13801;SDS011;6972;51.518;6.918;2023-02-15T06:06:26;35.40;;;19.43;;
13801;SDS011;6972;51.518;6.918;2023-02-15T06:08:52;33.97;;;19.83;;
13801;SDS011;6972;51.518;6.918;2023-02-15T06:11:18;35.67;;;20.20;;
13801;SDS011;6972;51.518;6.918;2023-02-15T06:13:44;34.00;;;20.37;;
13801;SDS011;6972;51.518;6.918;2023-02-15T06:16:11;34.43;;;20.53;;
13801;SDS011;6972;51.518;6.918;2023-02-15T06:18:37;34.33;;;20.27;;
13801;SDS011;6972;51.518;6.918;2023-02-15T06:21:03;37.93;;;20.97;;
13801;SDS011;6972;51.518;6.918;2023-02-15T06:23:29;34.53;;;20.67;;
13801;SDS011;6972;51.518;6.918;2023-02-15T06:25:55;41.77;;;20.73;;
13801;SDS011;6972;51.518;6.918;2023-02-15T06:28:21;37.50;;;19.93;;
13801;SDS011;6972;51.518;6.918;2023-02-15T06:30:47;35.20;;;19.90;;
13801;SDS011;6972;51.518;6.918;2023-02-15T06:33:12;37.30;;;21.03;;
13801;SDS011;6972;51.518;6.918;2023-02-15T06:35:39;37.27;;;20.27;;
13801;SDS011;6972;51.518;6.918;2023-02-15T06:38:04;35.63;;;19.60;;
13801;SDS011;6972;51.518;6.918;2023-02-15T06:40:30;37.60;;;20.60;;
13801;SDS011;6972;51.518;6.918;2023-02-15T06:42:56;39.33;;;20.57;;
13801;SDS011;6972;51.518;6.918;2023-02-15T06:45:22;37.00;;;20.13;;
13801;SDS011;6972;51.518;6.918;2023-02-15T06:47:47;36.73;;;20.87;;
13801;SDS011;6972;51.518;6.918;2023-02-15T06:50:13;34.57;;;20.37;;
13801;SDS011;6972;51.518;6.918;2023-02-15T06:52:39;36.57;;;20.67;;
13801;SDS011;6972;51.518;6.918;2023-02-15T06:55:05;33.70;;;20.83;;
13801;SDS011;6972;51.518;6.918;2023-02-15T06:57:31;33.70;;;20.47;;
13801;SDS011;6972;51.518;6.918;2023-02-15T06:59:58;38.87;;;20.77;;
13801;SDS011;6972;51.518;6.918;2023-02-15T07:02:24;39.77;;;21.03;;
13801;SDS011;6972;51.518;6.918;2023-02-15T07:04:50;35.93;;;21.30;;
13801;SDS011;6972;51.518;6.918;2023-02-15T07:07:16;39.47;;;21.67;;
13801;SDS011;6972;51.518;6.918;2023-02-15T07:09:42;36.60;;;21.13;;
13801;SDS011;6972;51.518;6.918;2023-02-15T07:12:08;36.90;;;21.33;;
13801;SDS011;6972;51.518;6.918;2023-02-15T07:14:53;40.93;;;22.00;;
13801;SDS011;6972;51.518;6.918;2023-02-15T07:17:19;41.23;;;23.33;;
13801;SDS011;6972;51.518;6.918;2023-02-15T07:19:45;37.33;;;22.97;;
13801;SDS011;6972;51.518;6.918;2023-02-15T07:22:11;38.57;;;23.07;;
13801;SDS011;6972;51.518;6.918;2023-02-15T07:24:37;39.67;;;23.10;;
13801;SDS011;6972;51.518;6.918;2023-02-15T07:27:03;38.83;;;20.73;;
13801;SDS011;6972;51.518;6.918;2023-02-15T07:29:29;34.97;;;21.07;;
13801;SDS011;6972;51.518;6.918;2023-02-15T07:31:55;42.07;;;22.50;;
13801;SDS011;6972;51.518;6.918;2023-02-15T07:34:21;39.63;;;22.07;;
13801;SDS011;6972;51.518;6.918;2023-02-15T07:36:47;37.60;;;21.03;;
13801;SDS011;6972;51.518;6.918;2023-02-15T07:39:13;41.37;;;21.87;;
13801;SDS011;6972;51.518;6.918;2023-02-15T07:41:39;40.20;;;22.97;;
13801;SDS011;6972;51.518;6.918;2023-02-15T07:44:05;35.00;;;20.47;;
13801;SDS011;6972;51.518;6.918;2023-02-15T07:46:31;35.37;;;20.43;;
13801;SDS011;6972;51.518;6.918;2023-02-15T07:48:57;40.20;;;21.80;;
13801;SDS011;6972;51.518;6.918;2023-02-15T07:51:23;41.50;;;22.30;;
13801;SDS011;6972;51.518;6.918;2023-02-15T07:53:49;37.57;;;21.37;;
13801;SDS011;6972;51.518;6.918;2023-02-15T07:56:16;36.13;;;21.93;;
13801;SDS011;6972;51.518;6.918;2023-02-15T07:58:42;40.63;;;21.57;;
13801;SDS011;6972;51.518;6.918;2023-02-15T08:01:19;39.03;;;20.83;;
13801;SDS011;6972;51.518;6.918;2023-02-15T08:03:46;41.13;;;21.73;;
13801;SDS011;6972;51.518;6.918;2023-02-15T08:06:13;36.03;;;20.40;;
13801;SDS011;6972;51.518;6.918;2023-02-15T08:08:39;38.80;;;21.80;;
13801;SDS011;6972;51.518;6.918;2023-02-15T08:11:16;35.07;;;21.43;;
13801;SDS011;6972;51.518;6.918;2023-02-15T08:18:59;37.70;;;21.67;;
13801;SDS011;6972;51.518;6.918;2023-02-15T08:21:27;33.53;;;19.67;;
13801;SDS011;6972;51.518;6.918;2023-02-15T08:23:54;35.07;;;20.47;;
13801;SDS011;6972;51.518;6.918;2023-02-15T08:26:21;31.67;;;19.47;;
13801;SDS011;6972;51.518;6.918;2023-02-15T08:28:47;36.27;;;20.17;;
13801;SDS011;6972;51.518;6.918;2023-02-15T08:31:15;32.43;;;19.30;;
13801;SDS011;6972;51.518;6.918;2023-02-15T08:33:42;35.40;;;21.50;;
13801;SDS011;6972;51.518;6.918;2023-02-15T08:36:09;35.07;;;20.03;;
13801;SDS011;6972;51.518;6.918;2023-02-15T08:38:37;37.07;;;20.40;;
13801;SDS011;6972;51.518;6.918;2023-02-15T08:41:10;32.33;;;18.77;;
13801;SDS011;6972;51.518;6.918;2023-02-15T08:43:37;36.77;;;19.47;;
13801;SDS011;6972;51.518;6.918;2023-02-15T08:46:04;34.20;;;19.90;;
13801;SDS011;6972;51.518;6.918;2023-02-15T08:48:30;36.30;;;19.97;;
13801;SDS011;6972;51.518;6.918;2023-02-15T08:50:56;36.23;;;19.27;;
13801;SDS011;6972;51.518;6.918;2023-02-15T08:53:22;36.73;;;19.37;;
13801;SDS011;6972;51.518;6.918;2023-02-15T08:55:55;30.47;;;18.17;;
13801;SDS011;6972;51.518;6.918;2023-02-15T08:58:24;35.37;;;19.70;;
13801;SDS011;6972;51.518;6.918;2023-02-15T09:00:50;31.63;;;17.73;;
13801;SDS011;6972;51.518;6.918;2023-02-15T09:03:16;36.67;;;18.07;;
13801;SDS011;6972;51.518;6.918;2023-02-15T09:05:42;31.20;;;17.97;;
13801;SDS011;6972;51.518;6.918;2023-02-15T09:08:08;29.20;;;17.47;;
13801;SDS011;6972;51.518;6.918;2023-02-15T09:10:34;34.50;;;19.17;;
13801;SDS011;6972;51.518;6.918;2023-02-15T09:13:00;30.67;;;17.33;;
13801;SDS011;6972;51.518;6.918;2023-02-15T09:15:26;31.33;;;18.40;;
13801;SDS011;6972;51.518;6.918;2023-02-15T09:17:52;31.63;;;18.17;;
13801;SDS011;6972;51.518;6.918;2023-02-15T09:20:18;31.97;;;18.03;;
13801;SDS011;6972;51.518;6.918;2023-02-15T09:22:44;31.10;;;17.20;;
13801;SDS011;6972;51.518;6.918;2023-02-15T09:25:10;35.43;;;17.73;;
13801;SDS011;6972;51.518;6.918;2023-02-15T09:27:38;26.53;;;16.73;;
13801;SDS011;6972;51.518;6.918;2023-02-15T09:30:05;25.83;;;15.57;;
13801;SDS011;6972;51.518;6.918;2023-02-15T09:32:31;27.20;;;15.67;;
13801;SDS011;6972;51.518;6.918;2023-02-15T09:34:57;27.77;;;15.73;;
13801;SDS011;6972;51.518;6.918;2023-02-15T09:37:23;28.10;;;16.03;;
13801;SDS011;6972;51.518;6.918;2023-02-15T09:39:49;27.20;;;16.13;;
13801;SDS011;6972;51.518;6.918;2023-02-15T09:53:00;24.50;;;14.50;;
13801;SDS011;6972;51.518;6.918;2023-02-15T10:07:23;25.67;;;14.40;;
13801;SDS011;6972;51.518;6.918;2023-02-15T10:10:11;25.03;;;14.53;;
13801;SDS011;6972;51.518;6.918;2023-02-15T10:15:51;23.83;;;14.60;;
13801;SDS011;6972;51.518;6.918;2023-02-15T10:19:11;24.03;;;13.93;;
13801;SDS011;6972;51.518;6.918;2023-02-15T10:27:11;26.57;;;14.57;;
13801;SDS011;6972;51.518;6.918;2023-02-15T10:29:48;21.07;;;13.10;;
13801;SDS011;6972;51.518;6.918;2023-02-15T10:32:35;25.80;;;13.57;;
13801;SDS011;6972;51.518;6.918;2023-02-15T10:35:28;20.17;;;12.13;;
13801;SDS011;6972;51.518;6.918;2023-02-15T11:00:15;21.87;;;12.00;;
13801;SDS011;6972;51.518;6.918;2023-02-15T11:08:14;24.27;;;11.97;;
13801;SDS011;6972;51.518;6.918;2023-02-15T11:10:50;23.53;;;12.80;;
13801;SDS011;6972;51.518;6.918;2023-02-15T11:13:22;20.60;;;10.70;;
13801;SDS011;6972;51.518;6.918;2023-02-15T11:15:57;19.27;;;11.30;;
13801;SDS011;6972;51.518;6.918;2023-02-15T11:18:45;24.30;;;12.40;;
13801;SDS011;6972;51.518;6.918;2023-02-15T11:21:22;20.60;;;11.90;;
13801;SDS011;6972;51.518;6.918;2023-02-15T11:23:54;20.53;;;11.00;;
13801;SDS011;6972;51.518;6.918;2023-02-15T11:28:48;18.57;;;10.87;;
13801;SDS011;6972;51.518;6.918;2023-02-15T11:31:20;18.83;;;10.83;;
13801;SDS011;6972;51.518;6.918;2023-02-15T11:33:51;21.73;;;11.47;;
13801;SDS011;6972;51.518;6.918;2023-02-15T11:36:28;18.38;;;10.77;;
13801;SDS011;6972;51.518;6.918;2023-02-15T11:39:05;20.93;;;11.47;;
13801;SDS011;6972;51.518;6.918;2023-02-15T11:41:37;23.17;;;12.30;;
13801;SDS011;6972;51.518;6.918;2023-02-15T11:46:43;18.67;;;10.13;;
13801;SDS011;6972;51.518;6.918;2023-02-15T11:51:47;21.15;;;10.80;;
13801;SDS011;6972;51.518;6.918;2023-02-15T11:54:15;21.10;;;11.20;;
13801;SDS011;6972;51.518;6.918;2023-02-15T11:56:43;21.53;;;11.27;;
13801;SDS011;6972;51.518;6.918;2023-02-15T11:59:11;29.20;;;12.20;;
13801;SDS011;6972;51.518;6.918;2023-02-15T12:01:45;19.47;;;11.00;;
13801;SDS011;6972;51.518;6.918;2023-02-15T12:06:57;25.07;;;11.83;;
13801;SDS011;6972;51.518;6.918;2023-02-15T12:09:40;27.17;;;11.83;;
13801;SDS011;6972;51.518;6.918;2023-02-15T12:12:32;23.17;;;11.27;;
13801;SDS011;6972;51.518;6.918;2023-02-15T12:15:04;20.17;;;11.13;;
13801;SDS011;6972;51.518;6.918;2023-02-15T12:17:38;22.15;;;11.68;;
13801;SDS011;6972;51.518;6.918;2023-02-15T12:20:07;22.42;;;10.63;;
13801;SDS011;6972;51.518;6.918;2023-02-15T12:23:02;22.85;;;14.68;;
13801;SDS011;6972;51.518;6.918;2023-02-15T12:28:00;25.40;;;15.35;;
13801;SDS011;6972;51.518;6.918;2023-02-15T12:33:05;18.52;;;10.52;;
13801;SDS011;6972;51.518;6.918;2023-02-15T12:35:47;25.75;;;13.25;;
13801;SDS011;6972;51.518;6.918;2023-02-15T12:38:21;21.58;;;12.07;;
13801;SDS011;6972;51.518;6.918;2023-02-15T12:41:03;19.13;;;10.55;;
13801;SDS011;6972;51.518;6.918;2023-02-15T12:43:32;24.13;;;11.35;;
13801;SDS011;6972;51.518;6.918;2023-02-15T12:46:18;29.27;;;10.43;;
13801;SDS011;6972;51.518;6.918;2023-02-15T12:49:05;18.60;;;10.45;;
13801;SDS011;6972;51.518;6.918;2023-02-15T12:51:51;22.42;;;10.73;;
13801;SDS011;6972;51.518;6.918;2023-02-15T12:56:47;18.55;;;9.82;;
13801;SDS011;6972;51.518;6.918;2023-02-15T12:59:13;20.92;;;10.60;;
13801;SDS011;6972;51.518;6.918;2023-02-15T13:01:40;22.25;;;10.85;;
13801;SDS011;6972;51.518;6.918;2023-02-15T13:04:14;19.63;;;10.40;;
13801;SDS011;6972;51.518;6.918;2023-02-15T13:06:48;19.42;;;10.40;;
13801;SDS011;6972;51.518;6.918;2023-02-15T13:12:10;22.30;;;11.68;;
13801;SDS011;6972;51.518;6.918;2023-02-15T13:14:45;23.83;;;10.35;;
13801;SDS011;6972;51.518;6.918;2023-02-15T13:17:15;19.95;;;10.73;;
13801;SDS011;6972;51.518;6.918;2023-02-15T13:20:02;21.80;;;10.80;;
13801;SDS011;6972;51.518;6.918;2023-02-15T13:22:38;21.33;;;11.50;;
13801;SDS011;6972;51.518;6.918;2023-02-15T13:25:14;20.83;;;11.32;;
13801;SDS011;6972;51.518;6.918;2023-02-15T13:27:46;21.27;;;10.65;;
13801;SDS011;6972;51.518;6.918;2023-02-15T13:30:25;22.45;;;11.18;;
13801;SDS011;6972;51.518;6.918;2023-02-15T13:36:02;21.67;;;10.85;;
13801;SDS011;6972;51.518;6.918;2023-02-15T13:41:30;21.70;;;9.75;;
13801;SDS011;6972;51.518;6.918;2023-02-15T14:00:21;18.58;;;10.20;;
13801;SDS011;6972;51.518;6.918;2023-02-15T14:17:08;19.00;;;10.00;;
13801;SDS011;6972;51.518;6.918;2023-02-15T14:19:45;23.15;;;11.68;;
13801;SDS011;6972;51.518;6.918;2023-02-15T14:24:44;20.23;;;10.98;;
13801;SDS011;6972;51.518;6.918;2023-02-15T14:27:36;26.35;;;11.45;;
13801;SDS011;6972;51.518;6.918;2023-02-15T14:30:13;19.98;;;10.35;;
13801;SDS011;6972;51.518;6.918;2023-02-15T14:32:44;20.98;;;10.63;;
13801;SDS011;6972;51.518;6.918;2023-02-15T14:35:15;19.67;;;10.77;;
13801;SDS011;6972;51.518;6.918;2023-02-15T14:48:31;22.42;;;11.68;;
13801;SDS011;6972;51.518;6.918;2023-02-15T14:51:01;19.73;;;10.68;;
13801;SDS011;6972;51.518;6.918;2023-02-15T14:58:38;23.50;;;11.63;;
13801;SDS011;6972;51.518;6.918;2023-02-15T15:01:25;22.90;;;10.48;;
13801;SDS011;6972;51.518;6.918;2023-02-15T15:03:52;23.80;;;11.30;;
13801;SDS011;6972;51.518;6.918;2023-02-15T15:06:40;24.58;;;11.57;;
13801;SDS011;6972;51.518;6.918;2023-02-15T15:09:14;24.25;;;11.48;;
13801;SDS011;6972;51.518;6.918;2023-02-15T15:11:47;18.15;;;10.30;;
13801;SDS011;6972;51.518;6.918;2023-02-15T15:16:58;21.25;;;10.43;;
13801;SDS011;6972;51.518;6.918;2023-02-15T15:22:19;25.25;;;11.35;;
13801;SDS011;6972;51.518;6.918;2023-02-15T15:24:46;21.55;;;11.63;;
13801;SDS011;6972;51.518;6.918;2023-02-15T15:27:40;19.02;;;10.23;;
13801;SDS011;6972;51.518;6.918;2023-02-15T15:49:30;20.80;;;10.07;;
13801;SDS011;6972;51.518;6.918;2023-02-15T15:52:01;18.25;;;9.57;;
13801;SDS011;6972;51.518;6.918;2023-02-15T15:54:38;17.38;;;9.38;;
13801;SDS011;6972;51.518;6.918;2023-02-15T15:57:05;19.67;;;10.35;;
13801;SDS011;6972;51.518;6.918;2023-02-15T15:59:51;16.55;;;9.70;;
13801;SDS011;6972;51.518;6.918;2023-02-15T16:02:19;17.60;;;9.40;;
13801;SDS011;6972;51.518;6.918;2023-02-15T16:04:45;19.88;;;10.27;;
13801;SDS011;6972;51.518;6.918;2023-02-15T16:12:20;19.35;;;9.93;;
13801;SDS011;6972;51.518;6.918;2023-02-15T16:14:46;22.05;;;9.82;;
13801;SDS011;6972;51.518;6.918;2023-02-15T16:17:18;19.75;;;9.05;;
13801;SDS011;6972;51.518;6.918;2023-02-15T16:19:49;22.80;;;10.18;;
13801;SDS011;6972;51.518;6.918;2023-02-15T16:22:20;17.85;;;9.32;;
13801;SDS011;6972;51.518;6.918;2023-02-15T16:27:46;19.95;;;9.95;;
13801;SDS011;6972;51.518;6.918;2023-02-15T16:30:29;18.05;;;10.02;;
13801;SDS011;6972;51.518;6.918;2023-02-15T16:33:10;29.73;;;10.35;;
13801;SDS011;6972;51.518;6.918;2023-02-15T16:35:57;18.65;;;9.88;;
13801;SDS011;6972;51.518;6.918;2023-02-15T16:41:07;16.88;;;9.10;;
13801;SDS011;6972;51.518;6.918;2023-02-15T16:43:47;19.33;;;10.23;;
13801;SDS011;6972;51.518;6.918;2023-02-15T16:48:57;23.13;;;10.10;;
13801;SDS011;6972;51.518;6.918;2023-02-15T16:51:27;21.83;;;10.10;;
13801;SDS011;6972;51.518;6.918;2023-02-15T16:53:54;19.48;;;9.75;;
13801;SDS011;6972;51.518;6.918;2023-02-15T16:56:23;25.38;;;10.45;;
13801;SDS011;6972;51.518;6.918;2023-02-15T16:58:51;21.17;;;10.85;;
13801;SDS011;6972;51.518;6.918;2023-02-15T17:01:20;22.65;;;11.02;;
13801;SDS011;6972;51.518;6.918;2023-02-15T17:03:49;22.30;;;10.63;;
13801;SDS011;6972;51.518;6.918;2023-02-15T17:06:26;21.77;;;10.90;;
13801;SDS011;6972;51.518;6.918;2023-02-15T17:09:02;16.63;;;9.68;;
13801;SDS011;6972;51.518;6.918;2023-02-15T17:11:42;17.30;;;10.23;;
13801;SDS011;6972;51.518;6.918;2023-02-15T17:16:35;20.23;;;10.43;;
13801;SDS011;6972;51.518;6.918;2023-02-15T17:19:28;21.35;;;10.57;;
13801;SDS011;6972;51.518;6.918;2023-02-15T17:22:01;21.23;;;10.88;;
13801;SDS011;6972;51.518;6.918;2023-02-15T17:24:36;21.55;;;10.43;;
13801;SDS011;6972;51.518;6.918;2023-02-15T17:27:05;18.50;;;10.25;;
13801;SDS011;6972;51.518;6.918;2023-02-15T17:29:48;17.23;;;10.18;;
13801;SDS011;6972;51.518;6.918;2023-02-15T17:32:20;21.30;;;9.77;;
13801;SDS011;6972;51.518;6.918;2023-02-15T17:35:16;22.50;;;10.98;;
13801;SDS011;6972;51.518;6.918;2023-02-15T17:37:47;19.60;;;11.60;;
13801;SDS011;6972;51.518;6.918;2023-02-15T17:43:08;21.38;;;10.85;;
13801;SDS011;6972;51.518;6.918;2023-02-15T17:45:55;18.85;;;10.40;;
13801;SDS011;6972;51.518;6.918;2023-02-15T17:48:24;18.85;;;10.88;;
13801;SDS011;6972;51.518;6.918;2023-02-15T17:50:58;21.08;;;10.63;;
13801;SDS011;6972;51.518;6.918;2023-02-15T17:53:27;19.90;;;11.17;;
13801;SDS011;6972;51.518;6.918;2023-02-15T17:55:53;18.45;;;10.13;;
13801;SDS011;6972;51.518;6.918;2023-02-15T17:58:20;24.15;;;11.80;;
13801;SDS011;6972;51.518;6.918;2023-02-15T18:03:50;25.00;;;10.43;;
13801;SDS011;6972;51.518;6.918;2023-02-15T18:06:36;20.45;;;10.70;;
13801;SDS011;6972;51.518;6.918;2023-02-15T18:09:22;22.80;;;10.75;;
13801;SDS011;6972;51.518;6.918;2023-02-15T18:12:18;18.58;;;11.57;;
13801;SDS011;6972;51.518;6.918;2023-02-15T18:14:49;23.13;;;11.25;;
13801;SDS011;6972;51.518;6.918;2023-02-15T18:17:16;18.48;;;10.90;;
13801;SDS011;6972;51.518;6.918;2023-02-15T18:19:43;20.55;;;11.15;;
13801;SDS011;6972;51.518;6.918;2023-02-15T18:22:14;18.50;;;11.27;;
13801;SDS011;6972;51.518;6.918;2023-02-15T18:24:41;28.30;;;12.60;;
13801;SDS011;6972;51.518;6.918;2023-02-15T18:27:09;18.83;;;10.97;;
13801;SDS011;6972;51.518;6.918;2023-02-15T18:29:36;19.13;;;11.13;;
13801;SDS011;6972;51.518;6.918;2023-02-15T18:32:02;20.73;;;10.90;;
13801;SDS011;6972;51.518;6.918;2023-02-15T18:34:32;16.48;;;10.68;;
13801;SDS011;6972;51.518;6.918;2023-02-15T18:37:03;19.25;;;11.20;;
13801;SDS011;6972;51.518;6.918;2023-02-15T18:41:57;22.00;;;11.80;;
13801;SDS011;6972;51.518;6.918;2023-02-15T18:44:23;17.23;;;10.97;;